createdAt,value
2023-05-23T00:00:24.015Z,18.31
2023-05-23T00:02:24.437Z,18.28
2023-05-23T00:04:24.852Z,18.29
2023-05-23T00:07:06.848Z,18.29
2023-05-23T00:09:07.187Z,18.26
2023-05-23T00:11:07.469Z,18.25
2023-05-23T00:13:07.795Z,18.29
2023-05-23T00:15:08.116Z,18.26
2023-05-23T00:17:08.620Z,18.26
2023-05-23T00:19:09.128Z,18.18
2023-05-23T00:21:09.580Z,18.20
2023-05-23T00:23:09.852Z,18.16
2023-05-23T00:25:10.127Z,18.11
2023-05-23T00:27:10.440Z,18.10
2023-05-23T00:29:10.787Z,18.04
2023-05-23T00:31:11.228Z,18.08
2023-05-23T00:33:11.559Z,18.03
2023-05-23T00:35:11.920Z,18.01
2023-05-23T00:37:12.201Z,18.04
2023-05-23T00:39:12.472Z,17.98
2023-05-23T00:41:12.798Z,17.95
2023-05-23T00:43:13.073Z,17.89
2023-05-23T00:45:13.351Z,17.85
2023-05-23T00:47:13.660Z,17.85
2023-05-23T00:49:13.981Z,17.79
2023-05-23T00:51:14.392Z,17.74
2023-05-23T00:53:14.670Z,17.68
2023-05-23T00:55:14.938Z,17.59
2023-05-23T00:57:15.237Z,17.48
2023-05-23T00:59:15.546Z,17.41
2023-05-23T01:01:15.894Z,17.29
2023-05-23T01:03:16.309Z,17.22
2023-05-23T01:05:16.625Z,17.15
2023-05-23T01:07:17.037Z,17.05
2023-05-23T01:09:17.278Z,16.99
2023-05-23T01:11:17.608Z,16.91
2023-05-23T01:13:17.943Z,16.90
2023-05-23T01:15:18.221Z,16.90
2023-05-23T01:17:18.532Z,16.79
2023-05-23T01:19:18.925Z,16.79
2023-05-23T01:21:19.215Z,16.86
2023-05-23T01:23:19.637Z,16.90
2023-05-23T01:25:19.993Z,16.83
2023-05-23T01:27:20.281Z,16.79
2023-05-23T01:29:20.613Z,16.74
2023-05-23T01:31:25.810Z,16.68
2023-05-23T01:33:26.130Z,16.68
2023-05-23T01:35:26.518Z,16.61
2023-05-23T01:37:26.761Z,16.58
2023-05-23T01:39:27.223Z,16.49
2023-05-23T01:41:27.523Z,16.43
2023-05-23T01:43:27.920Z,16.39
2023-05-23T01:45:28.241Z,16.36
2023-05-23T01:47:28.594Z,16.33
2023-05-23T01:49:28.902Z,16.24
2023-05-23T01:51:29.228Z,16.20
2023-05-23T01:53:29.557Z,16.13
2023-05-23T01:55:29.969Z,16.10
2023-05-23T01:57:30.209Z,16.12
2023-05-23T01:59:30.526Z,16.10
2023-05-23T02:01:30.852Z,16.08
2023-05-23T02:03:31.204Z,16.02
2023-05-23T02:05:31.544Z,16.08
2023-05-23T02:07:31.786Z,16.00
2023-05-23T02:09:32.228Z,15.98
2023-05-23T02:11:32.610Z,15.94
2023-05-23T02:13:32.913Z,15.92
2023-05-23T02:15:33.319Z,15.90
2023-05-23T02:17:33.653Z,15.88
2023-05-23T02:19:34.007Z,15.83
2023-05-23T02:21:35.541Z,15.88
2023-05-23T02:23:36.063Z,15.94
2023-05-23T02:25:36.441Z,15.98
2023-05-23T02:27:36.836Z,16.08
2023-05-23T02:29:37.157Z,16.08
2023-05-23T02:31:37.487Z,16.13
2023-05-23T02:33:37.905Z,16.17
2023-05-23T02:35:38.441Z,16.21
2023-05-23T02:37:38.917Z,16.36
2023-05-23T02:39:39.420Z,16.56
2023-05-23T02:41:39.691Z,16.65
2023-05-23T02:43:40.102Z,16.72
2023-05-23T02:45:40.552Z,16.78
2023-05-23T02:47:40.982Z,16.81
2023-05-23T02:49:41.297Z,16.89
2023-05-23T02:51:41.548Z,16.90
2023-05-23T02:53:46.950Z,16.93
2023-05-23T02:55:47.221Z,16.94
2023-05-23T02:57:52.412Z,16.97
2023-05-23T02:59:52.811Z,16.99
2023-05-23T03:01:53.154Z,17.02
2023-05-23T03:03:54.438Z,17.02
2023-05-23T03:05:54.747Z,17.04
2023-05-23T03:07:55.038Z,17.08
2023-05-23T03:09:55.353Z,17.15
2023-05-23T03:11:55.635Z,17.16
2023-05-23T03:13:56.049Z,17.15
2023-05-23T03:15:56.451Z,17.16
2023-05-23T03:17:56.796Z,17.16
2023-05-23T03:19:57.098Z,17.15
2023-05-23T03:21:57.448Z,17.14
2023-05-23T03:23:57.678Z,17.12
2023-05-23T03:25:58.022Z,17.12
2023-05-23T03:27:58.383Z,17.12
2023-05-23T03:29:58.655Z,17.08
2023-05-23T03:31:59.064Z,17.08
2023-05-23T03:33:59.365Z,17.04
2023-05-23T03:35:59.677Z,17.01
2023-05-23T03:37:59.998Z,17.01
2023-05-23T03:40:00.277Z,16.94
2023-05-23T03:42:00.554Z,16.90
2023-05-23T03:44:01.078Z,16.87
2023-05-23T03:46:01.417Z,16.83
2023-05-23T03:48:01.913Z,16.76
2023-05-23T03:50:02.189Z,16.72
2023-05-23T03:52:02.595Z,16.71
2023-05-23T03:54:02.891Z,16.66
2023-05-23T03:56:03.130Z,16.68
2023-05-23T03:58:03.534Z,16.65
2023-05-23T04:00:03.818Z,16.65
2023-05-23T04:02:04.118Z,16.60
2023-05-23T04:04:04.623Z,16.57
2023-05-23T04:06:05.849Z,16.53
2023-05-23T04:08:06.189Z,16.54
2023-05-23T04:10:06.510Z,16.53
2023-05-23T04:12:06.862Z,16.51
2023-05-23T04:14:07.131Z,16.51
2023-05-23T04:16:07.484Z,16.51
2023-05-23T04:18:07.957Z,16.49
2023-05-23T04:20:08.384Z,16.50
2023-05-23T04:22:08.654Z,16.47
2023-05-23T04:24:08.933Z,16.47
2023-05-23T04:26:09.445Z,16.46
2023-05-23T04:28:09.759Z,16.50
2023-05-23T04:30:10.347Z,16.50
2023-05-23T04:32:10.669Z,16.54
2023-05-23T04:34:11.019Z,16.56
2023-05-23T04:36:11.477Z,16.57
2023-05-23T04:38:11.773Z,16.61
2023-05-23T04:40:12.131Z,16.64
2023-05-23T04:42:15.023Z,16.61
2023-05-23T04:44:15.407Z,16.65
2023-05-23T04:46:15.768Z,16.69
2023-05-23T04:48:16.092Z,16.71
2023-05-23T04:50:16.386Z,16.66
2023-05-23T04:52:16.719Z,16.68
2023-05-23T04:54:17.014Z,16.68
2023-05-23T04:56:18.588Z,16.68
2023-05-23T04:58:22.970Z,16.68
2023-05-23T05:00:23.705Z,16.65
2023-05-23T05:02:24.245Z,16.66
2023-05-23T05:04:24.911Z,16.69
2023-05-23T05:06:25.577Z,16.69
2023-05-23T05:08:26.138Z,16.68
2023-05-23T05:10:26.583Z,16.68
2023-05-23T05:12:27.044Z,16.69
2023-05-23T05:14:27.682Z,16.68
2023-05-23T05:16:28.250Z,16.65
2023-05-23T05:18:28.751Z,16.64
2023-05-23T05:20:29.218Z,16.66
2023-05-23T05:22:29.669Z,16.72
2023-05-23T05:24:30.040Z,16.74
2023-05-23T05:26:30.303Z,16.75
2023-05-23T05:28:30.598Z,16.76
2023-05-23T05:30:30.957Z,16.84
2023-05-23T05:32:31.436Z,16.90
2023-05-23T05:34:31.680Z,16.87
2023-05-23T05:36:32.179Z,16.86
2023-05-23T05:38:32.466Z,16.87
2023-05-23T05:40:32.901Z,16.90
2023-05-23T05:42:33.215Z,16.84
2023-05-23T05:44:33.651Z,16.97
2023-05-23T05:46:33.939Z,17.05
2023-05-23T05:48:34.248Z,17.14
2023-05-23T05:50:39.900Z,17.23
2023-05-23T05:52:40.351Z,17.22
2023-05-23T05:54:40.700Z,17.26
2023-05-23T05:56:41.091Z,17.23
2023-05-23T05:58:41.501Z,17.29
2023-05-23T06:00:42.071Z,17.38
2023-05-23T06:02:42.770Z,17.41
2023-05-23T06:04:43.125Z,17.38
2023-05-23T06:06:43.407Z,17.44
2023-05-23T06:08:43.769Z,17.51
2023-05-23T06:10:44.275Z,17.48
2023-05-23T06:12:44.686Z,17.46
2023-05-23T06:14:44.957Z,17.41
2023-05-23T06:16:45.630Z,17.44
2023-05-23T06:18:45.928Z,17.49
2023-05-23T06:20:46.344Z,17.60
2023-05-23T06:22:46.809Z,17.72
2023-05-23T06:24:47.073Z,17.80
2023-05-23T06:26:47.387Z,17.89
2023-05-23T06:28:47.816Z,17.94
2023-05-23T06:30:48.287Z,17.98
2023-05-23T06:32:48.637Z,18.01
2023-05-23T06:34:49.022Z,17.98
2023-05-23T06:36:49.267Z,18.00
2023-05-23T06:38:49.787Z,18.04
2023-05-23T06:40:50.102Z,18.05
2023-05-23T06:42:50.408Z,17.94
2023-05-23T06:44:50.865Z,18.01
2023-05-23T06:46:51.168Z,18.11
2023-05-23T06:49:02.558Z,18.16
2023-05-23T06:50:56.810Z,18.08
2023-05-23T06:52:57.062Z,18.25
2023-05-23T06:54:57.343Z,18.28
2023-05-23T06:56:57.692Z,18.40
2023-05-23T06:58:57.986Z,18.47
2023-05-23T07:00:58.438Z,18.56
2023-05-23T07:02:58.811Z,18.50
2023-05-23T07:04:59.093Z,18.29
2023-05-23T07:06:59.362Z,18.29
2023-05-23T07:09:02.419Z,18.31
2023-05-23T07:11:02.923Z,18.26
2023-05-23T07:13:03.689Z,18.31
2023-05-23T07:15:04.601Z,18.29
2023-05-23T07:17:05.114Z,18.34
2023-05-23T07:19:09.047Z,18.41
2023-05-23T07:21:09.806Z,18.55
2023-05-23T07:23:56.439Z,18.65
2023-05-23T07:26:02.631Z,18.77
2023-05-23T07:28:02.091Z,18.80
2023-05-23T07:30:02.526Z,18.78
2023-05-23T07:32:02.905Z,18.73
2023-05-23T07:34:03.241Z,18.78
2023-05-23T07:36:03.633Z,18.84
2023-05-23T07:38:03.921Z,19.02
2023-05-23T07:40:04.525Z,18.99
2023-05-23T07:42:04.799Z,18.83
2023-05-23T07:44:05.110Z,18.86
2023-05-23T07:46:05.436Z,18.93
2023-05-23T07:48:05.750Z,19.14
2023-05-23T07:50:06.037Z,19.19
2023-05-23T07:52:06.362Z,19.24
2023-05-23T07:54:06.655Z,19.31
2023-05-23T07:56:07.055Z,19.45
2023-05-23T07:58:07.300Z,19.55
2023-05-23T08:00:07.723Z,19.52
2023-05-23T08:02:08.164Z,19.56
2023-05-23T08:04:08.519Z,19.56
2023-05-23T08:06:08.872Z,19.63
2023-05-23T08:08:09.148Z,19.66
2023-05-23T08:10:09.436Z,19.64
2023-05-23T08:12:09.799Z,19.58
2023-05-23T08:14:10.085Z,19.69
2023-05-23T08:16:10.454Z,19.63
2023-05-23T08:18:11.069Z,19.66
2023-05-23T08:20:11.351Z,19.66
2023-05-23T08:22:11.706Z,19.63
2023-05-23T08:24:14.124Z,19.58
2023-05-23T08:26:15.454Z,19.62
2023-05-23T08:28:15.715Z,19.92
2023-05-23T08:30:16.033Z,20.19
2023-05-23T08:32:16.378Z,20.36
2023-05-23T08:34:16.724Z,20.28
2023-05-23T08:36:17.013Z,20.21
2023-05-23T08:38:17.322Z,20.22
2023-05-23T08:40:17.760Z,20.10
2023-05-23T08:42:18.079Z,20.13
2023-05-23T08:44:18.383Z,20.14
2023-05-23T08:46:18.740Z,20.28
2023-05-23T08:48:19.146Z,20.06
2023-05-23T08:50:22.521Z,19.89
2023-05-23T08:52:23.314Z,19.92
2023-05-23T08:54:23.629Z,20.02
2023-05-23T08:56:23.910Z,20.11
2023-05-23T08:58:24.189Z,20.09
2023-05-23T09:00:24.526Z,20.11
2023-05-23T09:02:24.895Z,19.94
2023-05-23T09:04:25.173Z,19.73
2023-05-23T09:06:25.589Z,19.55
2023-05-23T09:08:25.921Z,19.51
2023-05-23T09:10:26.184Z,19.70
2023-05-23T09:12:26.498Z,19.99
2023-05-23T09:14:26.975Z,20.16
2023-05-23T09:16:27.270Z,20.37
2023-05-23T09:18:27.716Z,20.25
2023-05-23T09:20:28.032Z,20.34
2023-05-23T09:22:28.293Z,20.32
2023-05-23T09:24:28.593Z,20.36
2023-05-23T09:26:28.967Z,20.24
2023-05-23T09:28:29.206Z,20.25
2023-05-23T09:30:29.520Z,20.40
2023-05-23T09:32:29.833Z,20.29
2023-05-23T09:34:30.100Z,20.48
2023-05-23T09:36:30.430Z,20.47
2023-05-23T09:38:30.730Z,20.28
2023-05-23T09:40:31.120Z,20.39
2023-05-23T09:42:31.531Z,20.31
2023-05-23T09:44:31.804Z,20.48
2023-05-23T09:46:32.212Z,20.59
2023-05-23T09:48:32.474Z,20.74
2023-05-23T09:50:32.820Z,20.75
2023-05-23T09:52:33.086Z,20.58
2023-05-23T09:55:15.062Z,20.72
2023-05-23T09:57:15.339Z,20.69
2023-05-23T09:59:15.668Z,20.59
2023-05-23T10:01:16.008Z,20.43
2023-05-23T10:03:16.444Z,20.70
2023-05-23T10:05:16.776Z,20.81
2023-05-23T10:07:17.079Z,20.93
2023-05-23T10:09:17.364Z,20.80
2023-05-23T10:11:17.667Z,20.80
2023-05-23T10:13:18.067Z,20.88
2023-05-23T10:15:18.574Z,20.63
2023-05-23T10:17:19.286Z,20.19
2023-05-23T10:19:20.091Z,20.02
2023-05-23T10:21:20.528Z,20.00
2023-05-23T10:23:20.904Z,20.04
2023-05-23T10:25:21.267Z,20.09
2023-05-23T10:27:21.678Z,20.16
2023-05-23T10:29:21.995Z,20.29
2023-05-23T10:31:22.506Z,20.19
2023-05-23T10:33:22.837Z,20.32
2023-05-23T10:35:23.128Z,20.28
2023-05-23T10:37:23.459Z,20.28
2023-05-23T10:39:23.762Z,20.43
2023-05-23T10:41:24.122Z,20.39
2023-05-23T10:43:29.327Z,20.48
2023-05-23T10:45:29.647Z,20.81
2023-05-23T10:47:30.061Z,21.03
2023-05-23T10:49:30.355Z,20.90
2023-05-23T10:51:30.730Z,20.78
2023-05-23T10:53:31.034Z,20.78
2023-05-23T10:55:31.305Z,21.02
2023-05-23T10:57:31.592Z,20.95
2023-05-23T10:59:31.925Z,20.87
2023-05-23T11:01:33.171Z,20.74
2023-05-23T11:03:33.607Z,20.51
2023-05-23T11:05:34.008Z,20.36
2023-05-23T11:07:34.371Z,20.28
2023-05-23T11:09:34.971Z,20.13
2023-05-23T11:11:40.595Z,19.86
2023-05-23T11:13:41.190Z,19.74
2023-05-23T11:15:41.652Z,19.49
2023-05-23T11:17:42.050Z,19.55
2023-05-23T11:19:42.679Z,19.71
2023-05-23T11:21:47.591Z,19.88
2023-05-23T11:23:48.055Z,19.99
2023-05-23T11:25:49.297Z,20.09
2023-05-23T11:27:50.120Z,20.07
2023-05-23T11:29:50.664Z,20.16
2023-05-23T11:31:50.976Z,20.28
2023-05-23T11:33:52.969Z,20.48
2023-05-23T11:35:53.426Z,20.43
2023-05-23T11:37:53.895Z,20.39
2023-05-23T11:39:54.144Z,20.84
2023-05-23T11:41:54.465Z,21.14
2023-05-23T11:43:54.990Z,21.60
2023-05-23T11:45:55.572Z,21.69
2023-05-23T11:47:55.940Z,21.70
2023-05-23T11:49:56.201Z,21.75
2023-05-23T11:51:56.575Z,22.13
2023-05-23T11:53:56.920Z,22.63
2023-05-23T11:55:57.204Z,22.45
2023-05-23T11:57:57.656Z,21.92
2023-05-23T11:59:57.975Z,21.18
2023-05-23T12:01:58.228Z,20.93
2023-05-23T12:03:58.610Z,20.58
2023-05-23T12:05:59.113Z,20.36
2023-05-23T12:08:00.936Z,20.40
2023-05-23T12:10:01.598Z,20.37
2023-05-23T12:12:01.941Z,20.34
2023-05-23T12:14:02.177Z,20.52
2023-05-23T12:16:02.539Z,20.72
2023-05-23T12:18:03.366Z,20.65
2023-05-23T12:20:03.740Z,20.63
2023-05-23T12:22:04.416Z,20.66
2023-05-23T12:24:04.775Z,20.74
2023-05-23T12:26:05.083Z,20.65
2023-05-23T12:28:05.462Z,20.92
2023-05-23T12:30:05.837Z,21.20
2023-05-23T12:32:06.135Z,21.25
2023-05-23T12:34:06.469Z,21.33
2023-05-23T12:36:06.777Z,21.22
2023-05-23T12:38:07.034Z,21.29
2023-05-23T12:40:07.388Z,21.39
2023-05-23T12:42:07.686Z,21.54
2023-05-23T12:44:08.370Z,21.36
2023-05-23T12:46:08.706Z,21.18
2023-05-23T12:48:09.043Z,21.25
2023-05-23T12:50:10.080Z,21.83
2023-05-23T12:52:10.355Z,22.65
2023-05-23T12:54:10.737Z,22.85
2023-05-23T12:56:11.025Z,23.03
2023-05-23T12:58:11.457Z,23.10
2023-05-23T13:00:11.878Z,22.88
2023-05-23T13:02:12.452Z,22.62
2023-05-23T13:04:12.728Z,21.93
2023-05-23T13:06:13.352Z,22.10
2023-05-23T13:08:13.674Z,22.48
2023-05-23T13:10:13.961Z,22.66
2023-05-23T13:12:14.512Z,22.65
2023-05-23T13:14:14.801Z,22.38
2023-05-23T13:16:15.185Z,22.45
2023-05-23T13:18:15.549Z,22.39
2023-05-23T13:20:15.800Z,22.73
2023-05-23T13:22:16.139Z,22.81
2023-05-23T13:24:16.541Z,22.80
2023-05-23T13:26:16.805Z,22.91
2023-05-23T13:28:17.188Z,23.21
2023-05-23T13:30:17.528Z,23.39
2023-05-23T13:32:17.878Z,23.25
2023-05-23T13:34:18.467Z,22.98
2023-05-23T13:36:18.766Z,23.00
2023-05-23T13:38:19.155Z,23.00
2023-05-23T13:40:19.505Z,22.68
2023-05-23T13:42:19.780Z,21.98
2023-05-23T13:44:20.322Z,21.43
2023-05-23T13:46:20.663Z,21.36
2023-05-23T13:48:21.080Z,21.27
2023-05-23T13:50:21.586Z,21.20
2023-05-23T13:52:21.918Z,21.42
2023-05-23T13:54:27.043Z,21.52
2023-05-23T13:56:27.521Z,21.37
2023-05-23T13:58:28.814Z,21.29
2023-05-23T14:00:30.441Z,21.05
2023-05-23T14:03:13.037Z,21.02
2023-05-23T14:05:13.588Z,21.22
2023-05-23T14:07:13.938Z,21.11
2023-05-23T14:09:14.267Z,20.81
2023-05-23T14:11:14.569Z,21.11
2023-05-23T14:13:14.945Z,21.27
2023-05-23T14:15:15.327Z,21.33
2023-05-23T14:17:15.882Z,21.51
2023-05-23T14:19:16.186Z,21.52
2023-05-23T14:21:16.596Z,21.43
2023-05-23T14:23:16.841Z,21.43
2023-05-23T14:25:17.138Z,21.46
2023-05-23T14:27:17.412Z,21.60
2023-05-23T14:29:17.830Z,21.58
2023-05-23T14:31:18.153Z,21.45
2023-05-23T14:33:18.586Z,21.36
2023-05-23T14:35:18.896Z,21.61
2023-05-23T14:37:19.826Z,21.43
2023-05-23T14:39:20.136Z,21.21
2023-05-23T14:41:20.400Z,21.25
2023-05-23T14:43:20.754Z,21.46
2023-05-23T14:45:21.009Z,21.24
2023-05-23T14:47:21.302Z,21.06
2023-05-23T14:49:21.620Z,20.80
2023-05-23T14:51:41.890Z,20.85
2023-05-23T14:53:27.108Z,20.75
2023-05-23T14:55:27.417Z,20.31
2023-05-23T14:57:27.705Z,20.22
2023-05-23T14:59:27.965Z,20.19
2023-05-23T15:01:28.279Z,20.26
2023-05-23T15:03:28.679Z,20.22
2023-05-23T15:05:29.087Z,20.26
2023-05-23T15:07:29.321Z,20.26
2023-05-23T15:09:29.623Z,20.34
2023-05-23T15:11:30.050Z,20.39
2023-05-23T15:13:30.304Z,20.56
2023-05-23T15:15:30.621Z,20.74
2023-05-23T15:17:30.967Z,20.84
2023-05-23T15:19:31.293Z,20.92
2023-05-23T15:21:31.599Z,21.11
2023-05-23T15:23:31.821Z,21.24
2023-05-23T15:25:47.855Z,21.07
2023-05-23T15:27:37.302Z,21.24
2023-05-23T15:29:37.661Z,21.43
2023-05-23T15:31:38.004Z,21.51
2023-05-23T15:33:38.278Z,21.32
2023-05-23T15:35:38.638Z,21.18
2023-05-23T15:37:38.970Z,20.81
2023-05-23T15:39:39.353Z,20.88
2023-05-23T15:41:39.740Z,21.24
2023-05-23T15:43:40.074Z,20.84
2023-05-23T15:45:40.397Z,20.70
2023-05-23T15:47:40.823Z,21.02
2023-05-23T15:49:41.102Z,20.99
2023-05-23T15:51:41.567Z,20.80
2023-05-23T15:53:58.841Z,20.77
2023-05-23T15:55:47.192Z,20.65
2023-05-23T15:57:47.618Z,20.84
2023-05-23T15:59:47.997Z,20.96
2023-05-23T16:01:48.412Z,22.00
2023-05-23T16:03:48.948Z,23.12
2023-05-23T16:05:49.415Z,23.23
2023-05-23T16:07:49.671Z,22.99
2023-05-23T16:09:50.059Z,23.50
2023-05-23T16:11:50.362Z,23.73
2023-05-23T16:13:50.742Z,23.00
2023-05-23T16:15:55.884Z,23.06
2023-05-23T16:17:56.274Z,22.69
2023-05-23T16:19:56.692Z,22.11
2023-05-23T16:21:56.943Z,21.50
2023-05-23T16:23:57.271Z,21.03
2023-05-23T16:25:57.573Z,20.67
2023-05-23T16:27:57.978Z,20.47
2023-05-23T16:29:58.288Z,20.37
2023-05-23T16:31:58.635Z,20.44
2023-05-23T16:33:58.960Z,20.36
2023-05-23T16:35:59.229Z,20.24
2023-05-23T16:37:59.512Z,21.42
2023-05-23T16:39:59.940Z,20.70
2023-05-23T16:42:00.717Z,20.66
2023-05-23T16:44:01.028Z,20.16
2023-05-23T16:46:01.353Z,19.94
2023-05-23T16:48:02.083Z,19.77
2023-05-23T16:50:02.553Z,19.77
2023-05-23T16:52:02.896Z,19.84
2023-05-23T16:54:03.359Z,19.76
2023-05-23T16:56:03.790Z,20.92
2023-05-23T16:58:04.143Z,22.13
2023-05-23T17:00:04.418Z,22.70
2023-05-23T17:02:04.837Z,22.57
2023-05-23T17:04:05.170Z,21.54
2023-05-23T17:06:05.462Z,20.70
2023-05-23T17:08:05.955Z,20.43
2023-05-23T17:10:06.243Z,20.11
2023-05-23T17:12:06.577Z,19.84
2023-05-23T17:14:06.854Z,19.54
2023-05-23T17:16:07.251Z,19.54
2023-05-23T17:18:07.648Z,19.52
2023-05-23T17:20:07.939Z,19.34
2023-05-23T17:22:08.417Z,19.26
2023-05-23T17:24:08.722Z,19.19
2023-05-23T17:26:09.029Z,19.07
2023-05-23T17:28:09.371Z,18.96
2023-05-23T17:30:09.671Z,18.89
2023-05-23T17:32:09.941Z,18.92
2023-05-23T17:34:10.251Z,18.92
2023-05-23T17:36:10.563Z,18.89
2023-05-23T17:38:10.897Z,18.86
2023-05-23T17:40:11.203Z,18.93
2023-05-23T17:42:11.566Z,19.02
2023-05-23T17:44:11.890Z,18.99
2023-05-23T17:46:12.296Z,18.96
2023-05-23T17:48:12.634Z,18.90
2023-05-23T17:50:12.909Z,18.92
2023-05-23T17:52:13.302Z,18.88
2023-05-23T17:54:13.605Z,18.75
2023-05-23T17:56:13.906Z,18.81
2023-05-23T17:58:14.221Z,18.95
2023-05-23T18:00:14.574Z,18.98
2023-05-23T18:02:14.919Z,18.93
2023-05-23T18:04:15.275Z,18.86
2023-05-23T18:06:15.581Z,18.70
2023-05-23T18:08:15.860Z,18.62
2023-05-23T18:10:16.173Z,18.58
2023-05-23T18:12:16.633Z,18.47
2023-05-23T18:14:16.980Z,18.41
2023-05-23T18:16:58.965Z,18.28
2023-05-23T18:18:59.251Z,18.13
2023-05-23T18:20:59.766Z,18.00
2023-05-23T18:23:00.068Z,17.90
2023-05-23T18:25:00.473Z,17.86
2023-05-23T18:27:00.739Z,17.80
2023-05-23T18:29:01.006Z,17.74
2023-05-23T18:31:01.344Z,17.71
2023-05-23T18:33:01.731Z,17.65
2023-05-23T18:35:02.106Z,17.56
2023-05-23T18:37:02.448Z,17.48
2023-05-23T18:39:02.766Z,17.41
2023-05-23T18:41:03.049Z,17.36
2023-05-23T18:43:03.311Z,17.33
2023-05-23T18:45:03.646Z,17.29
2023-05-23T18:47:04.085Z,17.24
2023-05-23T18:49:04.410Z,17.22
2023-05-23T18:51:04.752Z,17.16
2023-05-23T18:53:05.232Z,17.16
2023-05-23T18:55:05.538Z,17.16
2023-05-23T18:57:05.772Z,17.15
2023-05-23T18:59:06.120Z,17.11
2023-05-23T19:01:06.483Z,17.05
2023-05-23T19:03:06.787Z,17.05
2023-05-23T19:05:07.166Z,16.99
2023-05-23T19:07:09.189Z,16.91
2023-05-23T19:09:09.507Z,16.89
2023-05-23T19:11:09.995Z,16.83
2023-05-23T19:13:10.320Z,16.78
2023-05-23T19:15:10.599Z,16.74
2023-05-23T19:17:10.890Z,16.71
2023-05-23T19:19:11.332Z,16.68
2023-05-23T19:21:11.672Z,16.64
2023-05-23T19:23:12.037Z,16.60
2023-05-23T19:25:12.416Z,16.53
2023-05-23T19:27:12.667Z,16.50
2023-05-23T19:29:13.026Z,16.49
2023-05-23T19:31:13.285Z,16.39
2023-05-23T19:33:14.068Z,16.32
2023-05-23T19:35:16.549Z,16.26
2023-05-23T19:37:17.424Z,16.16
2023-05-23T19:39:17.919Z,16.13
2023-05-23T19:41:20.279Z,16.05
2023-05-23T19:43:23.556Z,15.98
2023-05-23T19:45:24.263Z,15.91
2023-05-23T19:47:24.909Z,15.82
2023-05-23T19:49:25.317Z,15.76
2023-05-23T19:51:25.831Z,15.70
2023-05-23T19:53:26.165Z,15.65
2023-05-23T19:55:26.492Z,15.65
2023-05-23T19:57:26.761Z,15.62
2023-05-23T19:59:27.149Z,15.57
2023-05-23T20:01:27.537Z,15.51
2023-05-23T20:03:27.922Z,15.49
2023-05-23T20:05:28.244Z,15.42
2023-05-23T20:07:28.904Z,15.39
2023-05-23T20:11:19.243Z,15.22
2023-05-23T20:14:22.540Z,15.11
2023-05-23T20:20:30.137Z,14.92
2023-05-23T20:24:49.770Z,14.84
2023-05-23T20:28:04.860Z,14.70
2023-05-23T20:30:05.369Z,14.66
2023-05-23T20:32:08.044Z,14.66
2023-05-23T20:34:08.591Z,14.62
2023-05-23T20:36:09.061Z,14.55
2023-05-23T20:38:09.382Z,14.54
2023-05-23T20:40:09.721Z,14.45
2023-05-23T20:42:10.171Z,14.44
2023-05-23T20:44:11.306Z,14.37
2023-05-23T20:46:11.596Z,14.32
2023-05-23T20:48:11.946Z,14.33
2023-05-23T20:50:12.226Z,14.29
2023-05-23T20:52:15.000Z,14.23
2023-05-23T20:54:15.446Z,14.15
2023-05-23T20:57:37.747Z,14.05
2023-05-23T20:59:38.359Z,13.99
2023-05-23T21:01:38.911Z,13.92
2023-05-23T21:03:46.046Z,13.87
2023-05-23T21:06:30.475Z,13.79
2023-05-23T21:08:34.629Z,13.78
2023-05-23T21:12:00.012Z,13.70
2023-05-23T21:14:02.371Z,13.60
2023-05-23T21:16:03.515Z,13.53
2023-05-23T21:18:03.791Z,13.44
2023-05-23T21:20:04.109Z,13.42
2023-05-23T21:22:04.626Z,13.33
2023-05-23T21:24:04.909Z,13.25
2023-05-23T21:26:06.061Z,13.25
2023-05-23T21:28:06.442Z,13.18
2023-05-23T21:30:06.751Z,13.09
2023-05-23T21:32:08.090Z,13.08
2023-05-23T21:34:21.613Z,13.04
2023-05-23T21:36:13.581Z,12.98
2023-05-23T21:38:14.000Z,12.93
2023-05-23T21:40:14.235Z,12.87
2023-05-23T21:42:14.599Z,12.83
2023-05-23T21:44:28.972Z,12.78
2023-05-23T21:46:29.344Z,12.76
2023-05-23T21:48:29.715Z,12.73
2023-05-23T21:50:30.048Z,12.65
2023-05-23T21:52:30.349Z,12.61
2023-05-23T21:54:30.769Z,12.57
2023-05-23T21:56:31.063Z,12.50
2023-05-23T21:58:36.475Z,12.50
2023-05-23T22:00:36.767Z,12.46
2023-05-23T22:02:39.741Z,12.39
2023-05-23T22:04:40.095Z,12.39
2023-05-23T22:06:40.393Z,12.37
2023-05-23T22:08:40.716Z,12.35
2023-05-23T22:10:41.429Z,12.37
2023-05-23T22:12:41.862Z,12.42
2023-05-23T22:14:42.262Z,12.37
2023-05-23T22:16:42.613Z,12.39
2023-05-23T22:18:51.708Z,12.37
2023-05-23T22:20:48.292Z,12.32
2023-05-23T22:22:48.576Z,12.28
2023-05-23T22:24:48.954Z,12.32
2023-05-23T22:26:49.222Z,12.29
2023-05-23T22:28:49.537Z,12.25
2023-05-23T22:30:49.949Z,12.21
2023-05-23T22:32:50.268Z,12.17
2023-05-23T22:34:50.641Z,12.06
2023-05-23T22:36:51.036Z,12.03
2023-05-23T22:38:51.307Z,12.00
2023-05-23T22:40:51.588Z,11.97
2023-05-23T22:42:51.982Z,11.94
2023-05-23T22:44:52.260Z,12.00
2023-05-23T22:46:52.611Z,11.97
2023-05-23T22:48:53.014Z,11.94
2023-05-23T22:50:53.267Z,12.00
2023-05-23T22:52:53.568Z,11.97
2023-05-23T22:54:54.297Z,11.95
2023-05-23T22:56:54.558Z,11.99
2023-05-23T22:58:55.226Z,11.95
2023-05-23T23:00:55.584Z,11.91
2023-05-23T23:02:56.111Z,11.87
2023-05-23T23:04:56.432Z,11.88
2023-05-23T23:06:56.782Z,11.91
2023-05-23T23:08:57.127Z,11.88
2023-05-23T23:10:57.438Z,11.81
2023-05-23T23:12:57.788Z,11.80
2023-05-23T23:14:58.068Z,11.77
2023-05-23T23:16:58.355Z,11.80
2023-05-23T23:18:58.972Z,11.80
2023-05-23T23:20:59.269Z,11.86
2023-05-23T23:22:59.670Z,11.88
2023-05-23T23:25:00.005Z,11.86
2023-05-23T23:27:00.510Z,11.80
2023-05-23T23:29:00.795Z,11.78
2023-05-23T23:31:01.174Z,11.75
2023-05-23T23:33:01.525Z,11.73
2023-05-23T23:35:02.144Z,11.68
2023-05-23T23:37:02.441Z,11.68
2023-05-23T23:39:02.735Z,11.69
2023-05-23T23:41:03.076Z,11.66
2023-05-23T23:43:03.821Z,11.63
2023-05-23T23:45:04.147Z,11.60
2023-05-23T23:47:04.445Z,11.59
2023-05-23T23:49:04.726Z,11.54
2023-05-23T23:51:05.116Z,11.47
2023-05-23T23:53:05.412Z,11.43
2023-05-23T23:55:05.723Z,11.36
2023-05-23T23:57:06.073Z,11.32
2023-05-23T23:59:06.373Z,11.30
